createdAt,value
2023-03-16T00:01:12.482Z,2.00
2023-03-16T00:03:39.703Z,1.90
2023-03-16T00:06:07.221Z,1.80
2023-03-16T00:08:35.547Z,1.80
2023-03-16T00:11:04.213Z,1.80
2023-03-16T00:13:32.552Z,1.80
2023-03-16T00:16:02.551Z,1.80
2023-03-16T00:18:30.424Z,1.80
2023-03-16T00:20:59.275Z,1.70
2023-03-16T00:23:29.711Z,1.70
2023-03-16T00:26:02.965Z,1.70
2023-03-16T00:28:35.149Z,1.70
2023-03-16T00:31:03.251Z,1.70
2023-03-16T00:33:34.696Z,1.60
2023-03-16T00:36:03.922Z,1.60
2023-03-16T00:38:34.585Z,1.60
2023-03-16T00:41:04.058Z,1.60
2023-03-16T00:43:40.660Z,1.50
2023-03-16T00:46:10.172Z,1.60
2023-03-16T00:48:38.966Z,1.50
2023-03-16T00:51:08.822Z,1.50
2023-03-16T00:53:36.861Z,1.50
2023-03-16T00:56:04.941Z,1.50
2023-03-16T00:58:35.843Z,1.50
2023-03-16T01:01:03.930Z,1.50
2023-03-16T01:03:31.302Z,1.40
2023-03-16T01:06:00.043Z,1.40
2023-03-16T01:08:30.272Z,1.40
2023-03-16T01:11:01.725Z,1.30
2023-03-16T01:13:29.105Z,1.30
2023-03-16T01:15:57.791Z,1.40
2023-03-16T01:18:25.205Z,1.40
2023-03-16T01:20:53.389Z,1.40
2023-03-16T01:23:21.410Z,1.30
2023-03-16T01:25:53.076Z,1.30
2023-03-16T01:28:21.618Z,1.30
2023-03-16T01:30:48.897Z,1.30
2023-03-16T01:33:17.572Z,1.30
2023-03-16T01:35:52.313Z,1.20
2023-03-16T01:38:19.682Z,1.20
2023-03-16T01:40:50.806Z,1.20
2023-03-16T01:43:19.619Z,1.20
2023-03-16T01:46:20.399Z,1.20
2023-03-16T01:48:56.041Z,1.20
2023-03-16T01:51:31.516Z,1.20
2023-03-16T01:54:04.387Z,1.10
2023-03-16T01:56:35.856Z,1.10
2023-03-16T01:59:09.135Z,1.10
2023-03-16T02:01:36.660Z,1.10
2023-03-16T02:04:17.875Z,1.10
2023-03-16T02:06:47.287Z,1.10
2023-03-16T02:09:16.346Z,1.10
2023-03-16T02:11:43.721Z,1.00
2023-03-16T02:14:14.152Z,1.00
2023-03-16T02:16:42.720Z,1.00
2023-03-16T02:19:16.946Z,1.00
2023-03-16T02:21:54.350Z,1.00
2023-03-16T02:24:22.006Z,1.00
2023-03-16T02:26:53.524Z,1.00
2023-03-16T02:29:41.799Z,0.90
2023-03-16T02:32:10.079Z,0.90
2023-03-16T02:34:38.710Z,0.90
2023-03-16T02:37:07.124Z,0.80
2023-03-16T02:39:34.765Z,0.80
2023-03-16T02:42:02.506Z,0.80
2023-03-16T02:44:35.031Z,0.80
2023-03-16T02:47:09.970Z,0.70
2023-03-16T02:49:39.807Z,0.70
2023-03-16T02:52:07.805Z,0.70
2023-03-16T02:54:35.213Z,0.60
2023-03-16T02:57:02.590Z,0.60
2023-03-16T02:59:31.433Z,0.60
2023-03-16T03:01:58.774Z,0.60
2023-03-16T03:04:27.351Z,0.60
2023-03-16T03:06:54.589Z,0.50
2023-03-16T03:09:21.953Z,0.50
2023-03-16T03:11:53.770Z,0.50
2023-03-16T03:14:21.780Z,0.40
2023-03-16T03:16:52.136Z,0.40
2023-03-16T03:19:19.462Z,0.40
2023-03-16T03:21:48.023Z,0.30
2023-03-16T03:24:15.225Z,0.30
2023-03-16T03:26:44.931Z,0.40
2023-03-16T03:29:18.176Z,0.30
2023-03-16T03:31:45.452Z,0.30
2023-03-16T03:34:13.423Z,0.30
2023-03-16T03:36:41.449Z,0.20
2023-03-16T03:39:10.169Z,0.20
2023-03-16T03:41:37.691Z,0.20
2023-03-16T03:44:06.862Z,0.20
2023-03-16T03:46:35.619Z,0.20
2023-03-16T03:49:05.238Z,0.10
2023-03-16T03:51:35.044Z,0.10
2023-03-16T03:54:10.458Z,0.10
2023-03-16T03:56:48.776Z,0.10
2023-03-16T03:59:17.320Z,0.10
2023-03-16T04:02:04.607Z,0.10
2023-03-16T04:04:45.962Z,0.10
2023-03-16T04:07:14.226Z,0.10
2023-03-16T04:09:45.106Z,0.10
2023-03-16T04:12:22.396Z,0.00
2023-03-16T04:14:49.762Z,0.00
2023-03-16T04:17:17.707Z,0.00
2023-03-16T04:19:45.905Z,0.00
2023-03-16T04:22:16.338Z,0.00
2023-03-16T04:24:45.180Z,0.00
2023-03-16T04:27:14.003Z,0.00
2023-03-16T04:29:41.245Z,0.00
2023-03-16T04:32:09.164Z,0.00
2023-03-16T04:34:36.845Z,0.10
2023-03-16T04:37:06.323Z,0.00
2023-03-16T04:39:36.075Z,0.00
2023-03-16T04:42:06.160Z,0.00
2023-03-16T04:44:33.393Z,0.00
2023-03-16T04:47:00.654Z,0.00
2023-03-16T04:49:35.587Z,0.00
2023-03-16T04:52:02.877Z,0.00
2023-03-16T04:54:30.414Z,0.00
2023-03-16T04:56:58.005Z,0.00
2023-03-16T04:59:33.156Z,-0.10
2023-03-16T05:02:12.088Z,-0.10
2023-03-16T05:04:39.612Z,0.00
2023-03-16T05:07:10.116Z,-0.10
2023-03-16T05:09:39.736Z,-0.10
2023-03-16T05:12:08.049Z,-0.10
2023-03-16T05:14:37.241Z,-0.10
2023-03-16T05:17:15.630Z,-0.20
2023-03-16T05:19:45.470Z,-0.20
2023-03-16T05:22:13.804Z,-0.20
2023-03-16T05:24:54.273Z,-0.20
2023-03-16T05:27:21.586Z,-0.20
2023-03-16T05:29:50.432Z,-0.20
2023-03-16T05:32:17.711Z,-0.20
2023-03-16T05:34:46.959Z,-0.20
2023-03-16T05:37:14.201Z,-0.20
2023-03-16T05:39:41.438Z,-0.20
2023-03-16T05:42:08.907Z,-0.20
2023-03-16T05:44:50.021Z,-0.20
2023-03-16T05:47:26.743Z,-0.20
2023-03-16T05:49:57.244Z,-0.20
2023-03-16T05:52:39.483Z,-0.20
2023-03-16T05:55:15.276Z,-0.20
2023-03-16T05:57:47.695Z,-0.20
2023-03-16T06:00:18.321Z,-0.20
2023-03-16T06:02:52.494Z,-0.20
2023-03-16T06:05:21.956Z,-0.20
2023-03-16T06:07:50.138Z,-0.20
2023-03-16T06:10:18.452Z,-0.10
2023-03-16T06:12:45.930Z,-0.10
2023-03-16T06:15:13.796Z,0.00
2023-03-16T06:17:42.424Z,-0.10
2023-03-16T06:20:12.983Z,-0.10
2023-03-16T06:22:42.934Z,-0.10
2023-03-16T06:25:12.190Z,-0.10
2023-03-16T06:27:40.230Z,0.00
2023-03-16T06:30:13.573Z,0.10
2023-03-16T06:32:42.966Z,0.10
2023-03-16T06:35:10.312Z,0.10
2023-03-16T06:37:41.124Z,0.20
2023-03-16T06:40:23.313Z,0.20
2023-03-16T06:42:51.456Z,0.30
2023-03-16T06:45:22.173Z,0.30
2023-03-16T06:47:51.868Z,0.40
2023-03-16T06:50:19.316Z,0.50
2023-03-16T06:52:46.553Z,0.60
2023-03-16T06:55:14.500Z,0.70
2023-03-16T06:57:45.564Z,0.80
2023-03-16T07:00:15.495Z,0.90
2023-03-16T07:02:43.714Z,1.00
2023-03-16T07:05:13.952Z,1.10
2023-03-16T07:07:42.731Z,1.20
2023-03-16T07:10:11.561Z,1.30
2023-03-16T07:12:38.858Z,1.40
2023-03-16T07:15:06.951Z,1.60
2023-03-16T07:17:34.344Z,1.70
2023-03-16T07:20:05.767Z,1.90
2023-03-16T07:22:35.067Z,2.00
2023-03-16T07:25:02.648Z,2.20
2023-03-16T07:27:31.214Z,2.30
2023-03-16T07:30:00.871Z,2.50
2023-03-16T07:32:28.118Z,2.60
2023-03-16T07:34:59.177Z,2.80
2023-03-16T07:37:28.068Z,3.00
2023-03-16T07:39:59.560Z,3.10
2023-03-16T07:42:26.826Z,3.30
2023-03-16T07:45:03.805Z,3.50
2023-03-16T07:47:31.580Z,3.60
2023-03-16T07:50:03.657Z,3.90
2023-03-16T07:52:31.887Z,4.10
2023-03-16T07:55:00.395Z,4.20
2023-03-16T07:57:27.699Z,4.30
2023-03-16T07:59:55.176Z,4.50
2023-03-16T08:02:22.630Z,4.50
2023-03-16T08:04:50.376Z,4.60
2023-03-16T08:07:18.550Z,4.70
2023-03-16T08:09:58.010Z,4.90
2023-03-16T08:12:33.717Z,4.90
2023-03-16T08:15:01.833Z,5.00
2023-03-16T08:17:32.044Z,5.10
2023-03-16T08:20:01.296Z,5.20
2023-03-16T08:22:29.981Z,5.30
2023-03-16T08:24:57.425Z,5.40
2023-03-16T08:27:25.963Z,5.50
2023-03-16T08:30:04.772Z,5.70
2023-03-16T08:32:34.388Z,5.80
2023-03-16T08:35:01.645Z,6.00
2023-03-16T08:37:29.086Z,6.20
2023-03-16T08:40:00.322Z,6.50
2023-03-16T08:42:31.312Z,6.80
2023-03-16T08:45:11.629Z,7.10
2023-03-16T08:47:40.518Z,7.30
2023-03-16T08:50:09.799Z,7.60
2023-03-16T08:52:37.034Z,7.80
2023-03-16T08:55:05.768Z,8.10
2023-03-16T08:57:33.470Z,8.40
2023-03-16T09:00:01.295Z,8.80
2023-03-16T09:02:29.843Z,9.10
2023-03-16T09:04:57.052Z,9.50
2023-03-16T09:07:24.282Z,9.70
2023-03-16T09:09:51.562Z,9.90
2023-03-16T09:12:20.564Z,10.20
2023-03-16T09:14:48.905Z,10.60
2023-03-16T09:17:16.140Z,10.80
2023-03-16T09:19:54.344Z,10.80
2023-03-16T09:22:23.259Z,11.00
2023-03-16T09:24:51.197Z,11.20
2023-03-16T09:27:18.828Z,11.40
2023-03-16T09:29:46.646Z,11.70
2023-03-16T09:32:14.341Z,11.90
2023-03-16T09:34:42.042Z,12.20
2023-03-16T09:37:10.877Z,12.40
2023-03-16T09:39:38.332Z,12.50
2023-03-16T09:42:14.101Z,12.50
2023-03-16T09:44:54.124Z,12.70
2023-03-16T09:47:26.435Z,13.00
2023-03-16T09:49:59.997Z,13.20
2023-03-16T09:52:38.290Z,13.50
2023-03-16T09:55:11.973Z,13.50
2023-03-16T09:57:41.719Z,13.90
2023-03-16T10:00:17.306Z,14.10
2023-03-16T10:02:56.218Z,14.20
2023-03-16T10:05:24.802Z,14.30
2023-03-16T10:08:03.763Z,14.50
2023-03-16T10:10:57.713Z,14.80
2023-03-16T10:13:34.938Z,14.80
2023-03-16T10:16:07.664Z,15.20
2023-03-16T10:18:41.589Z,15.60
2023-03-16T10:21:13.222Z,15.80
2023-03-16T10:23:43.191Z,15.90
2023-03-16T10:26:14.650Z,16.20
2023-03-16T10:28:43.004Z,16.20
2023-03-16T10:31:11.912Z,16.60
2023-03-16T10:33:39.568Z,16.70
2023-03-16T10:36:15.585Z,16.80
2023-03-16T10:38:46.847Z,17.00
2023-03-16T10:41:25.973Z,16.90
2023-03-16T10:43:55.624Z,16.90
2023-03-16T10:46:24.910Z,17.00
2023-03-16T10:48:54.947Z,17.30
2023-03-16T10:51:26.197Z,17.50
2023-03-16T10:54:01.593Z,17.60
2023-03-16T10:56:34.436Z,17.80
2023-03-16T10:59:02.822Z,18.10
2023-03-16T11:01:31.890Z,18.20
2023-03-16T11:03:59.243Z,18.50
2023-03-16T11:06:30.645Z,18.70
2023-03-16T11:09:08.645Z,18.90
2023-03-16T11:11:37.473Z,18.90
2023-03-16T11:14:12.784Z,18.90
2023-03-16T11:16:44.341Z,19.00
2023-03-16T11:19:18.933Z,19.20
2023-03-16T11:21:54.742Z,19.40
2023-03-16T11:24:29.761Z,19.50
2023-03-16T11:27:00.745Z,19.30
2023-03-16T11:29:39.960Z,19.40
2023-03-16T11:32:15.251Z,19.50
2023-03-16T11:34:44.365Z,19.40
2023-03-16T11:37:22.598Z,19.40
2023-03-16T11:39:58.407Z,19.50
2023-03-16T11:42:33.426Z,19.40
2023-03-16T11:45:10.922Z,19.30
2023-03-16T11:48:06.691Z,19.20
2023-03-16T11:50:43.224Z,19.10
2023-03-16T11:53:18.277Z,19.30
2023-03-16T11:55:58.007Z,19.00
2023-03-16T11:58:40.881Z,18.90
2023-03-16T12:01:15.107Z,18.80
2023-03-16T12:03:55.116Z,18.80
2023-03-16T12:06:30.655Z,18.90
2023-03-16T12:09:30.774Z,18.20
2023-03-16T12:12:05.767Z,18.30
2023-03-16T12:14:40.126Z,18.40
2023-03-16T12:17:13.362Z,18.70
2023-03-16T12:19:45.660Z,18.70
2023-03-16T12:22:19.945Z,18.70
2023-03-16T12:24:48.045Z,18.50
2023-03-16T12:27:22.568Z,18.60
2023-03-16T12:29:57.690Z,19.00
2023-03-16T12:32:36.465Z,19.20
2023-03-16T12:35:17.597Z,19.00
2023-03-16T12:37:54.744Z,18.90
2023-03-16T12:40:32.746Z,18.90
2023-03-16T12:43:12.211Z,18.90
2023-03-16T12:45:46.800Z,18.80
2023-03-16T12:48:25.088Z,18.70
2023-03-16T12:50:55.665Z,18.70
2023-03-16T12:53:28.498Z,18.80
2023-03-16T12:55:57.267Z,18.80
2023-03-16T12:58:27.534Z,18.80
2023-03-16T13:00:57.978Z,19.00
2023-03-16T13:03:26.009Z,19.00
2023-03-16T13:05:55.586Z,19.00
2023-03-16T13:08:23.469Z,19.30
2023-03-16T13:11:02.198Z,19.50
2023-03-16T13:13:32.713Z,19.50
2023-03-16T13:16:06.899Z,19.70
2023-03-16T13:18:36.771Z,19.70
2023-03-16T13:21:16.166Z,19.90
2023-03-16T13:23:54.322Z,19.80
2023-03-16T13:26:34.564Z,19.80
2023-03-16T13:29:18.598Z,19.80
2023-03-16T13:31:46.056Z,20.10
2023-03-16T13:34:19.482Z,20.20
2023-03-16T13:36:47.100Z,20.30
2023-03-16T13:39:17.372Z,20.40
2023-03-16T13:41:55.990Z,20.40
2023-03-16T13:44:25.185Z,20.20
2023-03-16T13:46:52.589Z,20.20
2023-03-16T13:49:20.411Z,20.20
2023-03-16T13:51:48.470Z,19.90
2023-03-16T13:54:24.505Z,20.00
2023-03-16T13:56:53.201Z,20.10
2023-03-16T13:59:21.956Z,20.10
2023-03-16T14:01:57.894Z,20.30
2023-03-16T14:04:28.685Z,20.40
2023-03-16T14:06:58.315Z,20.30
2023-03-16T14:09:28.646Z,20.10
2023-03-16T14:11:57.661Z,20.20
2023-03-16T14:14:29.119Z,20.40
2023-03-16T14:17:05.167Z,20.40
2023-03-16T14:19:45.746Z,20.20
2023-03-16T14:22:15.318Z,20.30
2023-03-16T14:24:44.276Z,20.20
2023-03-16T14:27:26.613Z,19.90
2023-03-16T14:29:58.894Z,20.10
2023-03-16T14:32:29.503Z,20.10
2023-03-16T14:35:15.111Z,20.30
2023-03-16T14:37:43.597Z,20.00
2023-03-16T14:40:28.486Z,19.70
2023-03-16T14:42:58.599Z,19.90
2023-03-16T14:45:31.631Z,20.00
2023-03-16T14:48:05.498Z,19.80
2023-03-16T14:50:34.498Z,19.40
2023-03-16T14:53:03.779Z,19.10
2023-03-16T14:55:31.561Z,19.00
2023-03-16T14:57:59.031Z,18.70
2023-03-16T15:00:26.556Z,18.40
2023-03-16T15:03:00.788Z,18.30
2023-03-16T15:05:35.290Z,18.00
2023-03-16T15:08:05.707Z,18.00
2023-03-16T15:10:35.261Z,18.20
2023-03-16T15:13:13.032Z,18.10
2023-03-16T15:15:43.881Z,17.90
2023-03-16T15:18:11.172Z,17.50
2023-03-16T15:20:43.317Z,17.10
2023-03-16T15:23:14.840Z,16.80
2023-03-16T15:25:43.192Z,16.70
2023-03-16T15:28:14.390Z,16.50
2023-03-16T15:30:42.101Z,16.40
2023-03-16T15:33:09.877Z,16.20
2023-03-16T15:35:37.943Z,16.10
2023-03-16T15:38:11.698Z,15.80
2023-03-16T15:40:41.581Z,15.70
2023-03-16T15:43:11.274Z,15.70
2023-03-16T15:45:38.558Z,15.70
2023-03-16T15:48:07.052Z,15.50
2023-03-16T15:50:35.398Z,15.40
2023-03-16T15:53:09.108Z,15.30
2023-03-16T15:55:39.077Z,15.10
2023-03-16T15:58:10.542Z,15.00
2023-03-16T16:00:39.485Z,14.80
2023-03-16T16:03:07.344Z,14.60
2023-03-16T16:05:34.601Z,14.30
2023-03-16T16:08:02.001Z,14.10
2023-03-16T16:10:30.859Z,13.90
2023-03-16T16:12:59.054Z,13.80
2023-03-16T16:15:29.427Z,13.70
2023-03-16T16:18:19.677Z,13.30
2023-03-16T16:20:45.239Z,13.10
2023-03-16T16:23:12.646Z,13.10
2023-03-16T16:25:42.359Z,12.80
2023-03-16T16:28:15.077Z,12.40
2023-03-16T16:30:42.769Z,12.40
2023-03-16T16:33:22.027Z,12.30
2023-03-16T16:35:49.321Z,12.10
2023-03-16T16:38:16.559Z,12.00
2023-03-16T16:40:46.265Z,11.80
2023-03-16T16:43:24.357Z,11.50
2023-03-16T16:45:51.863Z,11.40
2023-03-16T16:48:29.125Z,11.30
2023-03-16T16:50:56.633Z,11.10
2023-03-16T16:53:24.569Z,11.00
2023-03-16T16:55:53.458Z,10.80
2023-03-16T16:58:24.548Z,10.70
2023-03-16T17:00:55.459Z,10.70
2023-03-16T17:03:24.974Z,10.60
2023-03-16T17:05:52.794Z,10.30
2023-03-16T17:08:20.189Z,10.20
2023-03-16T17:10:47.955Z,10.10
2023-03-16T17:13:26.264Z,10.10
2023-03-16T17:15:54.869Z,10.10
2023-03-16T17:18:22.179Z,10.00
2023-03-16T17:20:50.715Z,9.90
2023-03-16T17:23:29.267Z,9.80
2023-03-16T17:25:59.238Z,9.80
2023-03-16T17:28:29.614Z,9.70
2023-03-16T17:30:57.112Z,9.60
2023-03-16T17:33:27.302Z,9.50
2023-03-16T17:35:55.071Z,9.30
2023-03-16T17:38:23.612Z,9.30
2023-03-16T17:40:52.520Z,9.20
2023-03-16T17:43:21.883Z,9.20
2023-03-16T17:45:52.276Z,9.10
2023-03-16T17:48:21.011Z,9.00
2023-03-16T17:50:48.918Z,8.90
2023-03-16T17:53:18.175Z,8.90
2023-03-16T17:55:46.764Z,8.80
2023-03-16T17:58:24.038Z,8.80
2023-03-16T18:00:53.136Z,8.70
2023-03-16T18:03:21.580Z,8.60
2023-03-16T18:05:48.903Z,8.60
2023-03-16T18:08:17.742Z,8.60
2023-03-16T18:10:47.267Z,8.50
2023-03-16T18:13:19.114Z,8.40
2023-03-16T18:15:47.602Z,8.30
2023-03-16T18:18:20.471Z,8.30
2023-03-16T18:20:48.661Z,8.20
2023-03-16T18:23:18.666Z,8.10
2023-03-16T18:25:46.882Z,8.10
2023-03-16T18:28:14.704Z,8.00
2023-03-16T18:30:44.067Z,7.90
2023-03-16T18:33:23.641Z,7.90
2023-03-16T18:35:53.003Z,8.00
2023-03-16T18:38:27.526Z,8.00
2023-03-16T18:40:54.753Z,8.00
2023-03-16T18:43:21.944Z,7.90
2023-03-16T18:45:49.940Z,7.90
2023-03-16T18:48:23.327Z,8.00
2023-03-16T18:50:51.014Z,8.00
2023-03-16T18:53:19.165Z,7.90
2023-03-16T18:55:46.376Z,7.90
2023-03-16T18:58:19.156Z,7.90
2023-03-16T19:00:50.523Z,7.90
2023-03-16T19:03:25.565Z,7.80
2023-03-16T19:05:53.898Z,7.80
2023-03-16T19:08:21.435Z,7.80
2023-03-16T19:10:51.489Z,7.70
2023-03-16T19:13:21.487Z,7.70
2023-03-16T19:15:49.534Z,7.80
2023-03-16T19:18:16.917Z,7.80
2023-03-16T19:20:50.050Z,7.70
2023-03-16T19:23:21.734Z,7.70
2023-03-16T19:25:50.391Z,7.70
2023-03-16T19:28:25.354Z,7.70
2023-03-16T19:30:52.610Z,7.60
2023-03-16T19:33:22.574Z,7.50
2023-03-16T19:35:52.722Z,7.50
2023-03-16T19:38:20.513Z,7.50
2023-03-16T19:40:49.144Z,7.50
2023-03-16T19:43:18.412Z,7.50
2023-03-16T19:45:46.822Z,7.40
2023-03-16T19:48:16.557Z,7.40
2023-03-16T19:50:43.832Z,7.40
2023-03-16T19:53:17.362Z,7.40
2023-03-16T19:55:47.147Z,7.40
2023-03-16T19:58:23.529Z,7.40
2023-03-16T20:00:51.059Z,7.20
2023-03-16T20:03:18.644Z,7.30
2023-03-16T20:05:45.864Z,7.30
2023-03-16T20:08:21.174Z,7.30
2023-03-16T20:10:49.281Z,7.30
2023-03-16T20:13:16.726Z,7.20
2023-03-16T20:15:45.862Z,7.20
2023-03-16T20:18:15.128Z,7.20
2023-03-16T20:20:43.332Z,7.10
2023-03-16T20:23:21.234Z,7.10
2023-03-16T20:25:49.283Z,7.10
2023-03-16T20:28:19.764Z,7.00
2023-03-16T20:30:48.219Z,7.00
2023-03-16T20:33:20.406Z,7.00
2023-03-16T20:35:49.466Z,7.00
2023-03-16T20:38:18.045Z,7.00
2023-03-16T20:40:47.428Z,6.90
2023-03-16T20:43:26.401Z,7.00
2023-03-16T20:45:55.513Z,6.90
2023-03-16T20:48:25.408Z,7.00
2023-03-16T20:50:53.351Z,7.00
2023-03-16T20:53:22.598Z,7.00
2023-03-16T20:55:52.086Z,7.00
2023-03-16T20:58:22.077Z,7.00
2023-03-16T21:00:50.845Z,7.00
2023-03-16T21:03:20.666Z,6.90
2023-03-16T21:05:48.696Z,7.00
2023-03-16T21:08:16.604Z,6.90
2023-03-16T21:10:47.471Z,6.90
2023-03-16T21:13:20.658Z,6.80
2023-03-16T21:15:50.653Z,6.80
2023-03-16T21:18:20.588Z,6.90
2023-03-16T21:20:48.943Z,6.90
2023-03-16T21:23:18.163Z,6.90
2023-03-16T21:25:49.190Z,6.90
2023-03-16T21:28:19.121Z,6.80
2023-03-16T21:30:47.803Z,6.80
2023-03-16T21:33:19.887Z,6.90
2023-03-16T21:35:47.184Z,6.90
2023-03-16T21:38:17.238Z,6.80
2023-03-16T21:40:45.872Z,6.80
2023-03-16T21:43:14.826Z,6.80
2023-03-16T21:45:42.731Z,6.80
2023-03-16T21:48:15.489Z,6.80
2023-03-16T21:50:44.003Z,6.70
2023-03-16T21:53:22.019Z,6.70
2023-03-16T21:55:49.935Z,6.60
2023-03-16T21:58:18.989Z,6.60
2023-03-16T22:00:47.004Z,6.60
2023-03-16T22:03:24.676Z,6.60
2023-03-16T22:05:53.181Z,6.50
2023-03-16T22:08:22.294Z,6.50
2023-03-16T22:10:50.574Z,6.50
2023-03-16T22:13:19.191Z,6.40
2023-03-16T22:15:48.462Z,6.40
2023-03-16T22:18:28.097Z,6.40
2023-03-16T22:20:56.804Z,6.40
2023-03-16T22:23:29.744Z,6.30
2023-03-16T22:25:57.130Z,6.30
2023-03-16T22:28:26.360Z,6.30
2023-03-16T22:30:56.704Z,6.20
2023-03-16T22:33:28.246Z,6.20
2023-03-16T22:35:58.325Z,6.30
2023-03-16T22:38:26.276Z,6.20
2023-03-16T22:40:54.342Z,6.20
2023-03-16T22:43:28.418Z,6.20
2023-03-16T22:45:56.854Z,6.20
2023-03-16T22:48:26.488Z,6.20
2023-03-16T22:50:54.242Z,6.20
2023-03-16T22:53:26.015Z,6.20
2023-03-16T22:55:55.317Z,6.20
2023-03-16T22:58:28.992Z,6.20
2023-03-16T23:00:56.971Z,6.20
2023-03-16T23:03:24.998Z,6.20
2023-03-16T23:05:52.516Z,6.20
2023-03-16T23:08:22.802Z,6.20
2023-03-16T23:10:51.891Z,6.20
2023-03-16T23:13:24.063Z,6.10
2023-03-16T23:15:59.253Z,6.10
2023-03-16T23:18:26.868Z,6.10
2023-03-16T23:20:54.198Z,6.00
2023-03-16T23:23:21.772Z,6.00
2023-03-16T23:25:49.032Z,5.90
2023-03-16T23:28:20.736Z,5.90
2023-03-16T23:30:48.029Z,5.90
2023-03-16T23:33:16.687Z,5.90
2023-03-16T23:35:46.402Z,5.90
2023-03-16T23:38:13.796Z,5.90
2023-03-16T23:40:41.456Z,5.90
2023-03-16T23:43:09.090Z,5.90
2023-03-16T23:45:40.745Z,5.80
2023-03-16T23:48:13.214Z,5.80
2023-03-16T23:50:42.613Z,5.80
2023-03-16T23:53:14.250Z,5.80
2023-03-16T23:55:42.371Z,5.80
2023-03-16T23:58:10.770Z,5.70
